sensor_id;sensor_type;location;lat;lon;timestamp;P1;durP1;ratioP1;P2;durP2;ratioP2
53867;SDS011;41577;47.470;19.080;2023-03-17T00:00:02;17.38;;;8.48;;
53867;SDS011;41577;47.470;19.080;2023-03-17T00:00:22;17.73;;;8.23;;
53867;SDS011;41577;47.470;19.080;2023-03-17T00:00:38;19.73;;;8.20;;
53867;SDS011;41577;47.470;19.080;2023-03-17T00:00:53;18.23;;;8.40;;
53867;SDS011;41577;47.470;19.080;2023-03-17T00:01:14;17.73;;;8.35;;
53867;SDS011;41577;47.470;19.080;2023-03-17T00:01:28;15.02;;;8.05;;
53867;SDS011;41577;47.470;19.080;2023-03-17T00:01:41;12.77;;;8.30;;
53867;SDS011;41577;47.470;19.080;2023-03-17T00:01:57;16.48;;;10.35;;
53867;SDS011;41577;47.470;19.080;2023-03-17T00:02:10;21.27;;;12.55;;
53867;SDS011;41577;47.470;19.080;2023-03-17T00:02:24;22.73;;;12.50;;
53867;SDS011;41577;47.470;19.080;2023-03-17T00:02:38;22.88;;;11.98;;
53867;SDS011;41577;47.470;19.080;2023-03-17T00:02:53;21.98;;;12.05;;
53867;SDS011;41577;47.470;19.080;2023-03-17T00:03:05;21.25;;;12.00;;
53867;SDS011;41577;47.470;19.080;2023-03-17T00:03:19;20.80;;;11.00;;
53867;SDS011;41577;47.470;19.080;2023-03-17T00:03:35;19.95;;;10.70;;
53867;SDS011;41577;47.470;19.080;2023-03-17T00:03:50;17.38;;;9.75;;
53867;SDS011;41577;47.470;19.080;2023-03-17T00:04:04;17.25;;;9.13;;
53867;SDS011;41577;47.470;19.080;2023-03-17T00:04:17;19.05;;;9.77;;
53867;SDS011;41577;47.470;19.080;2023-03-17T00:04:30;18.23;;;10.13;;
53867;SDS011;41577;47.470;19.080;2023-03-17T00:04:43;18.77;;;10.32;;
53867;SDS011;41577;47.470;19.080;2023-03-17T00:04:56;19.77;;;10.68;;
53867;SDS011;41577;47.470;19.080;2023-03-17T00:05:37;25.63;;;11.63;;
53867;SDS011;41577;47.470;19.080;2023-03-17T00:05:49;23.92;;;10.93;;
53867;SDS011;41577;47.470;19.080;2023-03-17T00:06:04;20.17;;;11.38;;
53867;SDS011;41577;47.470;19.080;2023-03-17T00:06:24;20.05;;;11.98;;
53867;SDS011;41577;47.470;19.080;2023-03-17T00:06:40;18.55;;;10.55;;
53867;SDS011;41577;47.470;19.080;2023-03-17T00:06:52;18.77;;;10.07;;
53867;SDS011;41577;47.470;19.080;2023-03-17T00:07:08;19.40;;;9.95;;
53867;SDS011;41577;47.470;19.080;2023-03-17T00:07:25;17.63;;;9.10;;
53867;SDS011;41577;47.470;19.080;2023-03-17T00:07:38;18.17;;;9.80;;
53867;SDS011;41577;47.470;19.080;2023-03-17T00:07:51;18.80;;;10.18;;
53867;SDS011;41577;47.470;19.080;2023-03-17T00:08:09;16.83;;;9.60;;
53867;SDS011;41577;47.470;19.080;2023-03-17T00:08:24;15.98;;;9.30;;
53867;SDS011;41577;47.470;19.080;2023-03-17T00:08:40;18.30;;;9.68;;
53867;SDS011;41577;47.470;19.080;2023-03-17T00:08:52;18.73;;;9.65;;
53867;SDS011;41577;47.470;19.080;2023-03-17T00:09:06;19.17;;;10.02;;
53867;SDS011;41577;47.470;19.080;2023-03-17T00:09:22;18.00;;;9.45;;
53867;SDS011;41577;47.470;19.080;2023-03-17T00:09:37;17.90;;;8.90;;
53867;SDS011;41577;47.470;19.080;2023-03-17T00:09:50;17.60;;;9.23;;
53867;SDS011;41577;47.470;19.080;2023-03-17T00:10:05;16.80;;;9.43;;
53867;SDS011;41577;47.470;19.080;2023-03-17T00:10:23;24.27;;;9.27;;
53867;SDS011;41577;47.470;19.080;2023-03-17T00:10:37;24.80;;;9.25;;
53867;SDS011;41577;47.470;19.080;2023-03-17T00:10:50;19.23;;;9.05;;
53867;SDS011;41577;47.470;19.080;2023-03-17T00:11:04;15.57;;;8.93;;
53867;SDS011;41577;47.470;19.080;2023-03-17T00:11:21;16.58;;;9.30;;
53867;SDS011;41577;47.470;19.080;2023-03-17T00:11:36;18.52;;;9.25;;
53867;SDS011;41577;47.470;19.080;2023-03-17T00:11:52;18.10;;;9.20;;
53867;SDS011;41577;47.470;19.080;2023-03-17T00:12:09;17.17;;;9.30;;
53867;SDS011;41577;47.470;19.080;2023-03-17T00:12:22;18.75;;;9.68;;
53867;SDS011;41577;47.470;19.080;2023-03-17T00:12:38;20.08;;;9.80;;
53867;SDS011;41577;47.470;19.080;2023-03-17T00:12:52;20.17;;;9.60;;
53867;SDS011;41577;47.470;19.080;2023-03-17T00:13:05;22.75;;;9.52;;
53867;SDS011;41577;47.470;19.080;2023-03-17T00:13:17;20.30;;;9.65;;
53867;SDS011;41577;47.470;19.080;2023-03-17T00:13:30;14.82;;;9.60;;
53867;SDS011;41577;47.470;19.080;2023-03-17T00:13:44;17.00;;;9.90;;
53867;SDS011;41577;47.470;19.080;2023-03-17T00:13:56;17.25;;;9.75;;
53867;SDS011;41577;47.470;19.080;2023-03-17T00:14:13;16.65;;;9.38;;
53867;SDS011;41577;47.470;19.080;2023-03-17T00:14:28;20.30;;;9.30;;
53867;SDS011;41577;47.470;19.080;2023-03-17T00:14:42;22.77;;;9.65;;
53867;SDS011;41577;47.470;19.080;2023-03-17T00:14:58;18.90;;;9.70;;
53867;SDS011;41577;47.470;19.080;2023-03-17T00:15:11;19.63;;;9.70;;
53867;SDS011;41577;47.470;19.080;2023-03-17T00:15:24;22.10;;;9.75;;
53867;SDS011;41577;47.470;19.080;2023-03-17T00:15:45;20.75;;;9.50;;
53867;SDS011;41577;47.470;19.080;2023-03-17T00:16:05;21.73;;;9.40;;
53867;SDS011;41577;47.470;19.080;2023-03-17T00:16:26;18.88;;;9.73;;
53867;SDS011;41577;47.470;19.080;2023-03-17T00:16:41;20.98;;;9.73;;
53867;SDS011;41577;47.470;19.080;2023-03-17T00:16:58;23.10;;;10.32;;
53867;SDS011;41577;47.470;19.080;2023-03-17T00:17:13;21.10;;;10.15;;
53867;SDS011;41577;47.470;19.080;2023-03-17T00:17:29;20.05;;;10.05;;
53867;SDS011;41577;47.470;19.080;2023-03-17T00:17:42;23.42;;;10.02;;
53867;SDS011;41577;47.470;19.080;2023-03-17T00:17:56;23.30;;;9.75;;
53867;SDS011;41577;47.470;19.080;2023-03-17T00:18:09;19.17;;;9.40;;
53867;SDS011;41577;47.470;19.080;2023-03-17T00:18:25;18.20;;;9.35;;
53867;SDS011;41577;47.470;19.080;2023-03-17T00:18:39;19.17;;;10.18;;
53867;SDS011;41577;47.470;19.080;2023-03-17T00:18:53;24.48;;;10.43;;
53867;SDS011;41577;47.470;19.080;2023-03-17T00:19:08;28.85;;;10.35;;
53867;SDS011;41577;47.470;19.080;2023-03-17T00:19:27;25.38;;;11.15;;
53867;SDS011;41577;47.470;19.080;2023-03-17T00:19:41;22.30;;;10.38;;
53867;SDS011;41577;47.470;19.080;2023-03-17T00:19:59;19.48;;;9.60;;
53867;SDS011;41577;47.470;19.080;2023-03-17T00:20:21;18.88;;;9.57;;
53867;SDS011;41577;47.470;19.080;2023-03-17T00:20:36;21.38;;;10.18;;
53867;SDS011;41577;47.470;19.080;2023-03-17T00:20:50;21.58;;;10.82;;
53867;SDS011;41577;47.470;19.080;2023-03-17T00:21:05;22.33;;;10.93;;
53867;SDS011;41577;47.470;19.080;2023-03-17T00:21:28;21.02;;;10.23;;
53867;SDS011;41577;47.470;19.080;2023-03-17T00:21:48;18.88;;;10.45;;
53867;SDS011;41577;47.470;19.080;2023-03-17T00:22:02;17.70;;;10.02;;
53867;SDS011;41577;47.470;19.080;2023-03-17T00:22:23;22.58;;;10.50;;
53867;SDS011;41577;47.470;19.080;2023-03-17T00:22:36;21.45;;;10.02;;
53867;SDS011;41577;47.470;19.080;2023-03-17T00:22:48;20.80;;;10.02;;
53867;SDS011;41577;47.470;19.080;2023-03-17T00:23:02;22.67;;;10.20;;
53867;SDS011;41577;47.470;19.080;2023-03-17T00:23:15;21.85;;;9.80;;
53867;SDS011;41577;47.470;19.080;2023-03-17T00:23:32;21.50;;;9.63;;
53867;SDS011;41577;47.470;19.080;2023-03-17T00:23:45;23.54;;;10.02;;
53867;SDS011;41577;47.470;19.080;2023-03-17T00:24:01;21.55;;;10.15;;
53867;SDS011;41577;47.470;19.080;2023-03-17T00:24:17;18.50;;;10.07;;
53867;SDS011;41577;47.470;19.080;2023-03-17T00:24:30;19.83;;;10.30;;
53867;SDS011;41577;47.470;19.080;2023-03-17T00:24:45;19.98;;;10.32;;
53867;SDS011;41577;47.470;19.080;2023-03-17T00:25:01;20.90;;;10.32;;
53867;SDS011;41577;47.470;19.080;2023-03-17T00:25:17;22.90;;;10.13;;
53867;SDS011;41577;47.470;19.080;2023-03-17T00:25:40;28.77;;;10.90;;
53867;SDS011;41577;47.470;19.080;2023-03-17T00:25:54;25.08;;;10.73;;
53867;SDS011;41577;47.470;19.080;2023-03-17T00:26:11;20.52;;;9.73;;
53867;SDS011;41577;47.470;19.080;2023-03-17T00:26:27;18.42;;;9.55;;
53867;SDS011;41577;47.470;19.080;2023-03-17T00:26:43;20.60;;;9.63;;
53867;SDS011;41577;47.470;19.080;2023-03-17T00:26:57;21.88;;;9.93;;
53867;SDS011;41577;47.470;19.080;2023-03-17T00:27:17;20.10;;;9.82;;
53867;SDS011;41577;47.470;19.080;2023-03-17T00:27:32;21.38;;;9.95;;
53867;SDS011;41577;47.470;19.080;2023-03-17T00:27:45;20.98;;;10.25;;
53867;SDS011;41577;47.470;19.080;2023-03-17T00:28:00;21.92;;;10.45;;
53867;SDS011;41577;47.470;19.080;2023-03-17T00:28:16;23.88;;;10.65;;
53867;SDS011;41577;47.470;19.080;2023-03-17T00:28:31;26.35;;;10.50;;
53867;SDS011;41577;47.470;19.080;2023-03-17T00:28:46;27.63;;;10.40;;
53867;SDS011;41577;47.470;19.080;2023-03-17T00:29:01;22.15;;;10.15;;
53867;SDS011;41577;47.470;19.080;2023-03-17T00:29:15;21.00;;;9.82;;
53867;SDS011;41577;47.470;19.080;2023-03-17T00:29:31;24.58;;;10.07;;
53867;SDS011;41577;47.470;19.080;2023-03-17T00:29:43;23.20;;;10.40;;
53867;SDS011;41577;47.470;19.080;2023-03-17T00:29:58;21.17;;;10.63;;
53867;SDS011;41577;47.470;19.080;2023-03-17T00:30:15;21.67;;;11.15;;
53867;SDS011;41577;47.470;19.080;2023-03-17T00:30:30;25.70;;;14.07;;
53867;SDS011;41577;47.470;19.080;2023-03-17T00:30:46;33.38;;;14.40;;
53867;SDS011;41577;47.470;19.080;2023-03-17T00:31:09;30.80;;;13.55;;
53867;SDS011;41577;47.470;19.080;2023-03-17T00:31:30;29.33;;;13.80;;
53867;SDS011;41577;47.470;19.080;2023-03-17T00:31:46;29.15;;;13.30;;
53867;SDS011;41577;47.470;19.080;2023-03-17T00:31:59;28.77;;;13.15;;
53867;SDS011;41577;47.470;19.080;2023-03-17T00:32:14;29.85;;;13.35;;
53867;SDS011;41577;47.470;19.080;2023-03-17T00:32:30;26.23;;;13.00;;
53867;SDS011;41577;47.470;19.080;2023-03-17T00:32:42;23.45;;;12.23;;
53867;SDS011;41577;47.470;19.080;2023-03-17T00:33:10;24.25;;;11.57;;
53867;SDS011;41577;47.470;19.080;2023-03-17T00:33:40;22.50;;;12.05;;
53867;SDS011;41577;47.470;19.080;2023-03-17T00:33:53;21.38;;;12.13;;
53867;SDS011;41577;47.470;19.080;2023-03-17T00:34:09;21.30;;;11.45;;
53867;SDS011;41577;47.470;19.080;2023-03-17T00:34:30;20.73;;;11.10;;
53867;SDS011;41577;47.470;19.080;2023-03-17T00:34:45;22.10;;;11.23;;
53867;SDS011;41577;47.470;19.080;2023-03-17T00:35:00;23.83;;;11.55;;
53867;SDS011;41577;47.470;19.080;2023-03-17T00:35:20;26.80;;;11.63;;
53867;SDS011;41577;47.470;19.080;2023-03-17T00:35:35;29.20;;;11.82;;
53867;SDS011;41577;47.470;19.080;2023-03-17T00:35:53;26.60;;;11.65;;
53867;SDS011;41577;47.470;19.080;2023-03-17T00:36:09;21.38;;;11.07;;
53867;SDS011;41577;47.470;19.080;2023-03-17T00:36:29;20.05;;;10.90;;
53867;SDS011;41577;47.470;19.080;2023-03-17T00:36:47;19.40;;;10.80;;
53867;SDS011;41577;47.470;19.080;2023-03-17T00:37:07;18.02;;;10.38;;
53867;SDS011;41577;47.470;19.080;2023-03-17T00:37:22;19.55;;;10.20;;
53867;SDS011;41577;47.470;19.080;2023-03-17T00:37:36;20.85;;;9.90;;
53867;SDS011;41577;47.470;19.080;2023-03-17T00:37:54;25.73;;;10.48;;
53867;SDS011;41577;47.470;19.080;2023-03-17T00:38:08;25.33;;;11.05;;
53867;SDS011;41577;47.470;19.080;2023-03-17T00:38:26;21.05;;;10.25;;
53867;SDS011;41577;47.470;19.080;2023-03-17T00:38:42;17.75;;;10.43;;
53867;SDS011;41577;47.470;19.080;2023-03-17T00:38:55;17.23;;;10.40;;
53867;SDS011;41577;47.470;19.080;2023-03-17T00:39:11;18.45;;;10.43;;
53867;SDS011;41577;47.470;19.080;2023-03-17T00:39:23;19.55;;;10.40;;
53867;SDS011;41577;47.470;19.080;2023-03-17T00:39:39;18.52;;;10.50;;
53867;SDS011;41577;47.470;19.080;2023-03-17T00:39:53;18.90;;;10.30;;
53867;SDS011;41577;47.470;19.080;2023-03-17T00:40:10;22.48;;;10.13;;
53867;SDS011;41577;47.470;19.080;2023-03-17T00:40:27;21.45;;;9.82;;
53867;SDS011;41577;47.470;19.080;2023-03-17T00:40:42;20.33;;;9.85;;
53867;SDS011;41577;47.470;19.080;2023-03-17T00:40:55;17.42;;;10.05;;
53867;SDS011;41577;47.470;19.080;2023-03-17T00:41:11;15.84;;;10.24;;
53867;SDS011;41577;47.470;19.080;2023-03-17T00:41:25;17.50;;;10.35;;
53867;SDS011;41577;47.470;19.080;2023-03-17T00:41:40;22.27;;;10.10;;
53867;SDS011;41577;47.470;19.080;2023-03-17T00:41:55;23.25;;;10.30;;
53867;SDS011;41577;47.470;19.080;2023-03-17T00:42:14;21.58;;;10.50;;
53867;SDS011;41577;47.470;19.080;2023-03-17T00:42:29;21.73;;;10.65;;
53867;SDS011;41577;47.470;19.080;2023-03-17T00:42:41;21.92;;;10.38;;
53867;SDS011;41577;47.470;19.080;2023-03-17T00:42:57;21.67;;;10.38;;
53867;SDS011;41577;47.470;19.080;2023-03-17T00:43:10;19.90;;;10.20;;
53867;SDS011;41577;47.470;19.080;2023-03-17T00:43:26;20.55;;;10.52;;
53867;SDS011;41577;47.470;19.080;2023-03-17T00:43:41;19.65;;;10.38;;
53867;SDS011;41577;47.470;19.080;2023-03-17T00:43:53;19.00;;;9.77;;
53867;SDS011;41577;47.470;19.080;2023-03-17T00:44:07;20.45;;;9.80;;
53867;SDS011;41577;47.470;19.080;2023-03-17T00:44:23;24.50;;;9.73;;
53867;SDS011;41577;47.470;19.080;2023-03-17T00:44:42;24.75;;;9.95;;
53867;SDS011;41577;47.470;19.080;2023-03-17T00:44:56;21.77;;;9.90;;
53867;SDS011;41577;47.470;19.080;2023-03-17T00:45:08;20.77;;;9.98;;
53867;SDS011;41577;47.470;19.080;2023-03-17T00:45:22;20.88;;;10.13;;
53867;SDS011;41577;47.470;19.080;2023-03-17T00:45:37;21.10;;;10.05;;
53867;SDS011;41577;47.470;19.080;2023-03-17T00:45:50;19.65;;;10.18;;
53867;SDS011;41577;47.470;19.080;2023-03-17T00:46:04;21.38;;;10.48;;
53867;SDS011;41577;47.470;19.080;2023-03-17T00:46:23;19.23;;;10.27;;
53867;SDS011;41577;47.470;19.080;2023-03-17T00:46:38;19.83;;;10.23;;
53867;SDS011;41577;47.470;19.080;2023-03-17T00:46:55;25.90;;;9.80;;
53867;SDS011;41577;47.470;19.080;2023-03-17T00:47:11;23.88;;;9.52;;
53867;SDS011;41577;47.470;19.080;2023-03-17T00:47:27;19.25;;;9.52;;
53867;SDS011;41577;47.470;19.080;2023-03-17T00:47:40;20.98;;;9.50;;
53867;SDS011;41577;47.470;19.080;2023-03-17T00:47:54;19.38;;;9.25;;
53867;SDS011;41577;47.470;19.080;2023-03-17T00:48:10;21.33;;;9.52;;
53867;SDS011;41577;47.470;19.080;2023-03-17T00:48:26;23.45;;;10.18;;
53867;SDS011;41577;47.470;19.080;2023-03-17T00:48:42;21.67;;;10.18;;
53867;SDS011;41577;47.470;19.080;2023-03-17T00:48:57;22.15;;;10.50;;
53867;SDS011;41577;47.470;19.080;2023-03-17T00:49:11;25.10;;;11.32;;
53867;SDS011;41577;47.470;19.080;2023-03-17T00:49:32;32.67;;;14.63;;
53867;SDS011;41577;47.470;19.080;2023-03-17T00:49:49;37.83;;;18.48;;
53867;SDS011;41577;47.470;19.080;2023-03-17T00:50:05;39.75;;;20.08;;
53867;SDS011;41577;47.470;19.080;2023-03-17T00:50:29;46.38;;;20.05;;
53867;SDS011;41577;47.470;19.080;2023-03-17T00:50:46;46.75;;;21.52;;
53867;SDS011;41577;47.470;19.080;2023-03-17T00:51:00;42.00;;;21.55;;
53867;SDS011;41577;47.470;19.080;2023-03-17T00:51:17;46.47;;;23.00;;
53867;SDS011;41577;47.470;19.080;2023-03-17T00:51:31;52.97;;;25.58;;
53867;SDS011;41577;47.470;19.080;2023-03-17T00:51:44;49.90;;;25.88;;
53867;SDS011;41577;47.470;19.080;2023-03-17T00:52:01;43.10;;;24.15;;
53867;SDS011;41577;47.470;19.080;2023-03-17T00:52:14;43.10;;;22.70;;
53867;SDS011;41577;47.470;19.080;2023-03-17T00:52:28;40.13;;;20.63;;
53867;SDS011;41577;47.470;19.080;2023-03-17T00:52:42;41.00;;;18.92;;
53867;SDS011;41577;47.470;19.080;2023-03-17T00:52:56;39.90;;;18.33;;
53867;SDS011;41577;47.470;19.080;2023-03-17T00:53:15;38.50;;;17.35;;
53867;SDS011;41577;47.470;19.080;2023-03-17T00:53:32;29.77;;;16.13;;
53867;SDS011;41577;47.470;19.080;2023-03-17T00:53:50;30.75;;;15.75;;
53867;SDS011;41577;47.470;19.080;2023-03-17T00:54:03;33.28;;;15.98;;
53867;SDS011;41577;47.470;19.080;2023-03-17T00:54:16;31.80;;;14.35;;
53867;SDS011;41577;47.470;19.080;2023-03-17T00:54:30;25.98;;;12.40;;
53867;SDS011;41577;47.470;19.080;2023-03-17T00:54:43;26.17;;;12.27;;
53867;SDS011;41577;47.470;19.080;2023-03-17T00:54:56;25.83;;;11.85;;
53867;SDS011;41577;47.470;19.080;2023-03-17T00:55:09;26.05;;;12.13;;
53867;SDS011;41577;47.470;19.080;2023-03-17T00:55:27;27.08;;;13.20;;
53867;SDS011;41577;47.470;19.080;2023-03-17T00:55:40;27.02;;;13.80;;
53867;SDS011;41577;47.470;19.080;2023-03-17T00:55:54;25.90;;;14.18;;
53867;SDS011;41577;47.470;19.080;2023-03-17T00:56:09;22.90;;;13.65;;
53867;SDS011;41577;47.470;19.080;2023-03-17T00:56:24;23.15;;;13.32;;
53867;SDS011;41577;47.470;19.080;2023-03-17T00:56:38;27.40;;;13.07;;
53867;SDS011;41577;47.470;19.080;2023-03-17T00:56:54;28.45;;;12.27;;
53867;SDS011;41577;47.470;19.080;2023-03-17T00:57:07;24.52;;;11.95;;
53867;SDS011;41577;47.470;19.080;2023-03-17T00:57:21;21.75;;;11.57;;
53867;SDS011;41577;47.470;19.080;2023-03-17T00:57:35;21.42;;;10.82;;
53867;SDS011;41577;47.470;19.080;2023-03-17T00:57:50;20.00;;;10.75;;
53867;SDS011;41577;47.470;19.080;2023-03-17T00:58:05;23.23;;;12.35;;
53867;SDS011;41577;47.470;19.080;2023-03-17T00:58:24;32.50;;;15.55;;
53867;SDS011;41577;47.470;19.080;2023-03-17T00:58:44;45.28;;;23.02;;
53867;SDS011;41577;47.470;19.080;2023-03-17T00:58:59;49.78;;;24.35;;
53867;SDS011;41577;47.470;19.080;2023-03-17T00:59:15;47.15;;;22.63;;
53867;SDS011;41577;47.470;19.080;2023-03-17T00:59:32;42.53;;;21.02;;
53867;SDS011;41577;47.470;19.080;2023-03-17T00:59:50;38.40;;;19.67;;
53867;SDS011;41577;47.470;19.080;2023-03-17T01:00:16;42.20;;;21.83;;
53867;SDS011;41577;47.470;19.080;2023-03-17T01:00:33;44.38;;;21.88;;
53867;SDS011;41577;47.470;19.080;2023-03-17T01:00:46;44.40;;;20.67;;
53867;SDS011;41577;47.470;19.080;2023-03-17T01:01:00;40.85;;;19.40;;
53867;SDS011;41577;47.470;19.080;2023-03-17T01:01:13;39.30;;;19.17;;
53867;SDS011;41577;47.470;19.080;2023-03-17T01:01:27;36.58;;;18.27;;
53867;SDS011;41577;47.470;19.080;2023-03-17T01:01:43;37.35;;;19.25;;
53867;SDS011;41577;47.470;19.080;2023-03-17T01:02:00;38.95;;;20.73;;
53867;SDS011;41577;47.470;19.080;2023-03-17T01:02:13;34.25;;;19.48;;
53867;SDS011;41577;47.470;19.080;2023-03-17T01:02:26;33.35;;;19.00;;
53867;SDS011;41577;47.470;19.080;2023-03-17T01:02:44;43.90;;;21.88;;
53867;SDS011;41577;47.470;19.080;2023-03-17T01:02:57;46.35;;;22.42;;
53867;SDS011;41577;47.470;19.080;2023-03-17T01:03:11;38.70;;;21.13;;
53867;SDS011;41577;47.470;19.080;2023-03-17T01:03:23;43.00;;;21.73;;
53867;SDS011;41577;47.470;19.080;2023-03-17T01:03:36;52.55;;;23.50;;
53867;SDS011;41577;47.470;19.080;2023-03-17T01:03:49;52.40;;;23.83;;
53867;SDS011;41577;47.470;19.080;2023-03-17T01:04:03;50.65;;;22.85;;
53867;SDS011;41577;47.470;19.080;2023-03-17T01:04:16;44.45;;;22.38;;
53867;SDS011;41577;47.470;19.080;2023-03-17T01:04:29;37.20;;;19.45;;
53867;SDS011;41577;47.470;19.080;2023-03-17T01:04:43;33.75;;;16.73;;
53867;SDS011;41577;47.470;19.080;2023-03-17T01:05:03;25.63;;;15.05;;
53867;SDS011;41577;47.470;19.080;2023-03-17T01:05:19;26.27;;;13.38;;
53867;SDS011;41577;47.470;19.080;2023-03-17T01:05:34;25.55;;;12.60;;
53867;SDS011;41577;47.470;19.080;2023-03-17T01:05:47;27.00;;;13.02;;
53867;SDS011;41577;47.470;19.080;2023-03-17T01:06:02;26.88;;;12.85;;
53867;SDS011;41577;47.470;19.080;2023-03-17T01:06:20;24.55;;;12.40;;
53867;SDS011;41577;47.470;19.080;2023-03-17T01:06:35;24.33;;;11.65;;
53867;SDS011;41577;47.470;19.080;2023-03-17T01:06:48;24.67;;;11.70;;
53867;SDS011;41577;47.470;19.080;2023-03-17T01:07:02;29.67;;;12.35;;
53867;SDS011;41577;47.470;19.080;2023-03-17T01:07:17;28.10;;;12.50;;
53867;SDS011;41577;47.470;19.080;2023-03-17T01:07:31;23.13;;;12.15;;
53867;SDS011;41577;47.470;19.080;2023-03-17T01:07:44;23.77;;;11.88;;
53867;SDS011;41577;47.470;19.080;2023-03-17T01:07:59;25.00;;;11.25;;
53867;SDS011;41577;47.470;19.080;2023-03-17T01:08:12;22.17;;;10.77;;
53867;SDS011;41577;47.470;19.080;2023-03-17T01:08:24;20.33;;;10.52;;
53867;SDS011;41577;47.470;19.080;2023-03-17T01:08:39;19.55;;;10.77;;
53867;SDS011;41577;47.470;19.080;2023-03-17T01:08:51;21.50;;;10.30;;
53867;SDS011;41577;47.470;19.080;2023-03-17T01:09:08;27.33;;;10.50;;
53867;SDS011;41577;47.470;19.080;2023-03-17T01:09:26;28.70;;;12.05;;
53867;SDS011;41577;47.470;19.080;2023-03-17T01:09:41;25.08;;;12.32;;
53867;SDS011;41577;47.470;19.080;2023-03-17T01:09:54;23.17;;;11.85;;
53867;SDS011;41577;47.470;19.080;2023-03-17T01:10:10;21.08;;;11.43;;
53867;SDS011;41577;47.470;19.080;2023-03-17T01:10:25;24.08;;;11.20;;
53867;SDS011;41577;47.470;19.080;2023-03-17T01:10:39;23.83;;;11.00;;
53867;SDS011;41577;47.470;19.080;2023-03-17T01:10:52;20.80;;;10.73;;
53867;SDS011;41577;47.470;19.080;2023-03-17T01:11:09;21.55;;;11.00;;
53867;SDS011;41577;47.470;19.080;2023-03-17T01:11:25;24.50;;;10.45;;
53867;SDS011;41577;47.470;19.080;2023-03-17T01:11:38;25.65;;;10.18;;
53867;SDS011;41577;47.470;19.080;2023-03-17T01:11:51;22.67;;;10.45;;
53867;SDS011;41577;47.470;19.080;2023-03-17T01:12:05;21.20;;;10.38;;
53867;SDS011;41577;47.470;19.080;2023-03-17T01:12:21;21.15;;;10.30;;
53867;SDS011;41577;47.470;19.080;2023-03-17T01:12:34;19.63;;;10.23;;
53867;SDS011;41577;47.470;19.080;2023-03-17T01:12:49;20.13;;;10.40;;
53867;SDS011;41577;47.470;19.080;2023-03-17T01:13:05;21.75;;;10.93;;
53867;SDS011;41577;47.470;19.080;2023-03-17T01:13:17;23.98;;;10.93;;
53867;SDS011;41577;47.470;19.080;2023-03-17T01:13:31;25.52;;;10.10;;
53867;SDS011;41577;47.470;19.080;2023-03-17T01:13:44;26.92;;;9.95;;
53867;SDS011;41577;47.470;19.080;2023-03-17T01:13:57;22.50;;;9.88;;
53867;SDS011;41577;47.470;19.080;2023-03-17T01:14:10;19.95;;;9.82;;
53867;SDS011;41577;47.470;19.080;2023-03-17T01:14:24;19.52;;;9.73;;
53867;SDS011;41577;47.470;19.080;2023-03-17T01:14:37;22.38;;;10.25;;
53867;SDS011;41577;47.470;19.080;2023-03-17T01:14:54;27.98;;;10.93;;
53867;SDS011;41577;47.470;19.080;2023-03-17T01:15:10;24.70;;;11.40;;
53867;SDS011;41577;47.470;19.080;2023-03-17T01:15:24;25.88;;;13.25;;
53867;SDS011;41577;47.470;19.080;2023-03-17T01:15:42;28.52;;;13.93;;
53867;SDS011;41577;47.470;19.080;2023-03-17T01:15:56;25.23;;;13.05;;
53867;SDS011;41577;47.470;19.080;2023-03-17T01:16:09;30.02;;;13.02;;
53867;SDS011;41577;47.470;19.080;2023-03-17T01:16:25;31.88;;;13.15;;
53867;SDS011;41577;47.470;19.080;2023-03-17T01:16:37;27.80;;;12.73;;
53867;SDS011;41577;47.470;19.080;2023-03-17T01:16:51;29.40;;;12.45;;
53867;SDS011;41577;47.470;19.080;2023-03-17T01:17:05;32.33;;;12.63;;
53867;SDS011;41577;47.470;19.080;2023-03-17T01:17:24;29.77;;;13.30;;
53867;SDS011;41577;47.470;19.080;2023-03-17T01:17:38;24.40;;;12.82;;
53867;SDS011;41577;47.470;19.080;2023-03-17T01:17:53;25.02;;;12.55;;
53867;SDS011;41577;47.470;19.080;2023-03-17T01:18:08;25.42;;;12.30;;
53867;SDS011;41577;47.470;19.080;2023-03-17T01:18:27;25.10;;;11.95;;
53867;SDS011;41577;47.470;19.080;2023-03-17T01:18:41;26.60;;;12.40;;
53867;SDS011;41577;47.470;19.080;2023-03-17T01:19:02;25.77;;;12.18;;
53867;SDS011;41577;47.470;19.080;2023-03-17T01:19:15;22.30;;;11.48;;
53867;SDS011;41577;47.470;19.080;2023-03-17T01:19:28;21.60;;;10.65;;
53867;SDS011;41577;47.470;19.080;2023-03-17T01:19:41;22.65;;;10.88;;
53867;SDS011;41577;47.470;19.080;2023-03-17T01:19:56;21.85;;;10.95;;
53867;SDS011;41577;47.470;19.080;2023-03-17T01:20:10;23.63;;;10.57;;
53867;SDS011;41577;47.470;19.080;2023-03-17T01:20:30;24.88;;;10.35;;
53867;SDS011;41577;47.470;19.080;2023-03-17T01:20:47;21.88;;;10.32;;
53867;SDS011;41577;47.470;19.080;2023-03-17T01:21:02;22.02;;;10.40;;
53867;SDS011;41577;47.470;19.080;2023-03-17T01:21:21;21.55;;;10.25;;
53867;SDS011;41577;47.470;19.080;2023-03-17T01:21:44;24.58;;;10.48;;
53867;SDS011;41577;47.470;19.080;2023-03-17T01:21:56;22.25;;;10.07;;
53867;SDS011;41577;47.470;19.080;2023-03-17T01:22:09;24.23;;;10.15;;
53867;SDS011;41577;47.470;19.080;2023-03-17T01:22:23;22.35;;;9.80;;
53867;SDS011;41577;47.470;19.080;2023-03-17T01:22:39;22.42;;;9.60;;
53867;SDS011;41577;47.470;19.080;2023-03-17T01:22:52;23.60;;;10.15;;
53867;SDS011;41577;47.470;19.080;2023-03-17T01:23:08;23.45;;;10.60;;
53867;SDS011;41577;47.470;19.080;2023-03-17T01:23:29;21.15;;;9.90;;
53867;SDS011;41577;47.470;19.080;2023-03-17T01:23:45;21.65;;;10.07;;
53867;SDS011;41577;47.470;19.080;2023-03-17T01:23:58;23.02;;;10.57;;
53867;SDS011;41577;47.470;19.080;2023-03-17T01:24:14;27.92;;;10.90;;
53867;SDS011;41577;47.470;19.080;2023-03-17T01:24:31;28.25;;;11.10;;
53867;SDS011;41577;47.470;19.080;2023-03-17T01:24:47;25.00;;;11.25;;
53867;SDS011;41577;47.470;19.080;2023-03-17T01:25:07;32.40;;;11.60;;
53867;SDS011;41577;47.470;19.080;2023-03-17T01:25:21;30.23;;;11.02;;
53867;SDS011;41577;47.470;19.080;2023-03-17T01:25:34;24.40;;;10.80;;
53867;SDS011;41577;47.470;19.080;2023-03-17T01:25:51;24.25;;;11.15;;
53867;SDS011;41577;47.470;19.080;2023-03-17T01:26:05;27.08;;;11.18;;
53867;SDS011;41577;47.470;19.080;2023-03-17T01:26:19;24.55;;;11.02;;
53867;SDS011;41577;47.470;19.080;2023-03-17T01:26:31;21.30;;;11.45;;
53867;SDS011;41577;47.470;19.080;2023-03-17T01:26:47;23.23;;;11.98;;
53867;SDS011;41577;47.470;19.080;2023-03-17T01:27:03;23.67;;;11.88;;
53867;SDS011;41577;47.470;19.080;2023-03-17T01:27:17;24.08;;;11.63;;
53867;SDS011;41577;47.470;19.080;2023-03-17T01:27:33;25.73;;;11.48;;
53867;SDS011;41577;47.470;19.080;2023-03-17T01:27:48;25.67;;;11.55;;
53867;SDS011;41577;47.470;19.080;2023-03-17T01:28:03;22.63;;;11.60;;
53867;SDS011;41577;47.470;19.080;2023-03-17T01:28:17;24.67;;;11.75;;
53867;SDS011;41577;47.470;19.080;2023-03-17T01:28:30;25.17;;;11.32;;
53867;SDS011;41577;47.470;19.080;2023-03-17T01:28:43;27.45;;;11.15;;
53867;SDS011;41577;47.470;19.080;2023-03-17T01:28:57;27.10;;;11.45;;